NTAA/PPT METAR and TAF weather

Enter ICAO airport designator
Station Type Date Time Source
NTAA METAR 2019/08/24 07:30 UTC NOAA

NTAA 240730Z 11003KT 9999 FEW026 SCT043 24/19 Q1014 NOSIG


Station Type Date Time Source
NTAA Decoded METAR 2019/08/24 07:30 UTC NOAA

Station name not available
Aug 24, 2019 - 03:30 AM EDT / 2019.08.24 0730 UTC
Wind: from the ESE (110 degrees) at 3 MPH (3 KT):0
Visibility: greater than 7 mile(s):0
Sky conditions: partly cloudy
Temperature: 75 F (24 C)
Dew Point: 66 F (19 C)
Relative Humidity: 73%
Pressure (altimeter): 29.94 in. Hg (1014 hPa)
ob: NTAA 240730Z 11003KT 9999 FEW026 SCT043 24/19 Q1014 NOSIG
cycle: 7

Station Type Date Time Source
NTAA TAF 2019/08/24 06:14 UTC NOAA

TAF NTAA 240500Z 2406/2512 VRB02KT 9999 FEW025 SCT045
FM241200 VRB02KT 9999 FEW017 BKN045 PROB40
TEMPO 2415/2506 05015KT 3000 SHRA FEW012 SCT016 BKN040
FM250900 VRB04KT 9999 FEW025

Example: see airport list